sensor_id;sensor_type;location;lat;lon;timestamp;temperature;humidity
25945;SHT31;13742;49.306;8.636;2024-03-23T00:54:18;12.28;74.54
25945;SHT31;13742;49.306;8.636;2024-03-23T00:55:18;12.28;74.83
25945;SHT31;13742;49.306;8.636;2024-03-23T00:56:18;12.28;74.57
25945;SHT31;13742;49.306;8.636;2024-03-23T00:57:18;12.31;74.60
25945;SHT31;13742;49.306;8.636;2024-03-23T00:58:18;12.31;74.44
25945;SHT31;13742;49.306;8.636;2024-03-23T00:59:18;12.29;74.41
25945;SHT31;13742;49.306;8.636;2024-03-23T01:00:18;12.31;74.69
25945;SHT31;13742;49.306;8.636;2024-03-23T01:01:18;12.33;74.57
25945;SHT31;13742;49.306;8.636;2024-03-23T01:02:18;12.31;74.34
25945;SHT31;13742;49.306;8.636;2024-03-23T01:03:18;12.32;74.45
25945;SHT31;13742;49.306;8.636;2024-03-23T01:04:18;12.33;74.35
25945;SHT31;13742;49.306;8.636;2024-03-23T01:05:18;12.33;74.54
25945;SHT31;13742;49.306;8.636;2024-03-23T01:06:18;12.33;74.51
25945;SHT31;13742;49.306;8.636;2024-03-23T01:07:18;12.36;74.38
25945;SHT31;13742;49.306;8.636;2024-03-23T01:08:18;12.36;74.64
25945;SHT31;13742;49.306;8.636;2024-03-23T01:09:18;12.35;74.26
25945;SHT31;13742;49.306;8.636;2024-03-23T01:10:18;12.39;74.49
25945;SHT31;13742;49.306;8.636;2024-03-23T01:11:18;12.38;74.60
25945;SHT31;13742;49.306;8.636;2024-03-23T01:12:18;12.41;74.82
25945;SHT31;13742;49.306;8.636;2024-03-23T01:13:21;12.39;74.55
25945;SHT31;13742;49.306;8.636;2024-03-23T01:14:18;12.39;74.51
25945;SHT31;13742;49.306;8.636;2024-03-23T01:15:18;12.38;74.33
25945;SHT31;13742;49.306;8.636;2024-03-23T01:16:18;12.36;74.05
25945;SHT31;13742;49.306;8.636;2024-03-23T01:17:18;12.38;74.60
25945;SHT31;13742;49.306;8.636;2024-03-23T01:18:19;12.39;74.22
25945;SHT31;13742;49.306;8.636;2024-03-23T01:19:18;12.36;74.12
25945;SHT31;13742;49.306;8.636;2024-03-23T01:20:18;12.36;73.98
25945;SHT31;13742;49.306;8.636;2024-03-23T01:21:18;12.38;74.06
25945;SHT31;13742;49.306;8.636;2024-03-23T01:22:18;12.38;74.07
25945;SHT31;13742;49.306;8.636;2024-03-23T01:23:18;12.36;74.05
25945;SHT31;13742;49.306;8.636;2024-03-23T01:24:18;12.38;74.49
25945;SHT31;13742;49.306;8.636;2024-03-23T01:25:18;12.39;74.64
25945;SHT31;13742;49.306;8.636;2024-03-23T01:26:18;12.36;74.33
25945;SHT31;13742;49.306;8.636;2024-03-23T01:27:18;12.36;74.18
25945;SHT31;13742;49.306;8.636;2024-03-23T01:28:19;12.39;74.53
25945;SHT31;13742;49.306;8.636;2024-03-23T01:29:18;12.38;74.50
25945;SHT31;13742;49.306;8.636;2024-03-23T01:30:18;12.38;74.54
25945;SHT31;13742;49.306;8.636;2024-03-23T01:31:18;12.36;74.83
25945;SHT31;13742;49.306;8.636;2024-03-23T01:32:18;12.36;74.73
25945;SHT31;13742;49.306;8.636;2024-03-23T01:33:18;12.35;74.83
25945;SHT31;13742;49.306;8.636;2024-03-23T01:34:19;12.36;75.03
25945;SHT31;13742;49.306;8.636;2024-03-23T01:35:18;12.36;74.82
25945;SHT31;13742;49.306;8.636;2024-03-23T01:36:18;12.38;74.66
25945;SHT31;13742;49.306;8.636;2024-03-23T01:37:18;12.35;74.65
25945;SHT31;13742;49.306;8.636;2024-03-23T01:38:18;12.36;74.72
25945;SHT31;13742;49.306;8.636;2024-03-23T01:39:18;12.36;74.60
25945;SHT31;13742;49.306;8.636;2024-03-23T01:40:19;12.35;74.23
25945;SHT31;13742;49.306;8.636;2024-03-23T01:41:18;12.36;74.16
25945;SHT31;13742;49.306;8.636;2024-03-23T01:42:18;12.39;75.06
25945;SHT31;13742;49.306;8.636;2024-03-23T01:43:18;12.38;74.54
25945;SHT31;13742;49.306;8.636;2024-03-23T01:44:18;12.38;74.27
25945;SHT31;13742;49.306;8.636;2024-03-23T01:45:18;12.39;74.08
25945;SHT31;13742;49.306;8.636;2024-03-23T01:46:18;12.39;74.08
25945;SHT31;13742;49.306;8.636;2024-03-23T01:47:18;12.36;74.26
25945;SHT31;13742;49.306;8.636;2024-03-23T01:48:21;12.39;74.31
25945;SHT31;13742;49.306;8.636;2024-03-23T01:49:18;12.41;74.32
25945;SHT31;13742;49.306;8.636;2024-03-23T01:50:19;12.41;74.17
25945;SHT31;13742;49.306;8.636;2024-03-23T01:51:18;12.41;74.44
25945;SHT31;13742;49.306;8.636;2024-03-23T01:52:18;12.41;74.50
25945;SHT31;13742;49.306;8.636;2024-03-23T01:53:21;12.42;74.35
25945;SHT31;13742;49.306;8.636;2024-03-23T01:54:18;12.42;74.27
25945;SHT31;13742;49.306;8.636;2024-03-23T01:55:18;12.42;74.28
25945;SHT31;13742;49.306;8.636;2024-03-23T01:56:18;12.42;74.03
25945;SHT31;13742;49.306;8.636;2024-03-23T01:57:19;12.43;74.17
25945;SHT31;13742;49.306;8.636;2024-03-23T01:58:18;12.42;74.14
25945;SHT31;13742;49.306;8.636;2024-03-23T01:59:18;12.42;74.08
25945;SHT31;13742;49.306;8.636;2024-03-23T02:00:18;12.43;74.06
25945;SHT31;13742;49.306;8.636;2024-03-23T02:01:19;12.43;74.35
25945;SHT31;13742;49.306;8.636;2024-03-23T02:02:20;12.42;74.27
25945;SHT31;13742;49.306;8.636;2024-03-23T02:03:23;12.43;74.25
25945;SHT31;13742;49.306;8.636;2024-03-23T02:04:18;12.45;74.17
25945;SHT31;13742;49.306;8.636;2024-03-23T02:05:18;12.45;73.88
25945;SHT31;13742;49.306;8.636;2024-03-23T02:06:18;12.46;73.90
25945;SHT31;13742;49.306;8.636;2024-03-23T02:07:18;12.42;73.93
25945;SHT31;13742;49.306;8.636;2024-03-23T02:08:20;12.46;73.99
25945;SHT31;13742;49.306;8.636;2024-03-23T02:09:18;12.45;74.27
25945;SHT31;13742;49.306;8.636;2024-03-23T02:10:18;12.45;74.30
25945;SHT31;13742;49.306;8.636;2024-03-23T02:11:18;12.46;74.44
25945;SHT31;13742;49.306;8.636;2024-03-23T02:12:18;12.46;74.40
25945;SHT31;13742;49.306;8.636;2024-03-23T02:13:18;12.45;74.48
25945;SHT31;13742;49.306;8.636;2024-03-23T02:14:18;12.43;74.42
25945;SHT31;13742;49.306;8.636;2024-03-23T02:15:18;12.48;74.22
25945;SHT31;13742;49.306;8.636;2024-03-23T02:16:18;12.46;74.18
25945;SHT31;13742;49.306;8.636;2024-03-23T02:17:18;12.45;74.51
25945;SHT31;13742;49.306;8.636;2024-03-23T02:18:18;12.46;74.40
25945;SHT31;13742;49.306;8.636;2024-03-23T02:19:18;12.48;74.15
25945;SHT31;13742;49.306;8.636;2024-03-23T02:20:18;12.48;74.36
25945;SHT31;13742;49.306;8.636;2024-03-23T02:21:18;12.51;74.44
25945;SHT31;13742;49.306;8.636;2024-03-23T02:22:18;12.48;74.22
25945;SHT31;13742;49.306;8.636;2024-03-23T02:23:18;12.46;74.24
25945;SHT31;13742;49.306;8.636;2024-03-23T02:24:18;12.49;74.27
25945;SHT31;13742;49.306;8.636;2024-03-23T02:25:18;12.49;74.81
25945;SHT31;13742;49.306;8.636;2024-03-23T02:26:18;12.48;75.09
25945;SHT31;13742;49.306;8.636;2024-03-23T02:27:18;12.52;75.06
25945;SHT31;13742;49.306;8.636;2024-03-23T02:28:19;12.49;74.74
25945;SHT31;13742;49.306;8.636;2024-03-23T02:29:20;12.49;74.53
25945;SHT31;13742;49.306;8.636;2024-03-23T02:30:18;12.53;74.84
25945;SHT31;13742;49.306;8.636;2024-03-23T02:31:18;12.52;74.43
25945;SHT31;13742;49.306;8.636;2024-03-23T02:32:18;12.53;74.40
25945;SHT31;13742;49.306;8.636;2024-03-23T02:33:18;12.55;74.51
25945;SHT31;13742;49.306;8.636;2024-03-23T02:34:18;12.53;74.30
25945;SHT31;13742;49.306;8.636;2024-03-23T02:35:18;12.55;74.17
25945;SHT31;13742;49.306;8.636;2024-03-23T02:36:18;12.57;73.98
25945;SHT31;13742;49.306;8.636;2024-03-23T02:37:18;12.59;73.88
25945;SHT31;13742;49.306;8.636;2024-03-23T02:38:18;12.59;74.00
25945;SHT31;13742;49.306;8.636;2024-03-23T02:39:18;12.59;73.92
25945;SHT31;13742;49.306;8.636;2024-03-23T02:40:19;12.59;74.01
25945;SHT31;13742;49.306;8.636;2024-03-23T02:41:22;12.59;73.97
25945;SHT31;13742;49.306;8.636;2024-03-23T02:42:18;12.60;73.87
25945;SHT31;13742;49.306;8.636;2024-03-23T02:43:18;12.60;73.93
25945;SHT31;13742;49.306;8.636;2024-03-23T02:44:18;12.64;74.04
25945;SHT31;13742;49.306;8.636;2024-03-23T02:45:18;12.63;74.02
25945;SHT31;13742;49.306;8.636;2024-03-23T02:46:18;12.63;74.24
25945;SHT31;13742;49.306;8.636;2024-03-23T02:47:18;12.63;74.09
25945;SHT31;13742;49.306;8.636;2024-03-23T02:48:18;12.66;74.31
25945;SHT31;13742;49.306;8.636;2024-03-23T02:49:18;12.66;74.50
25945;SHT31;13742;49.306;8.636;2024-03-23T02:50:19;12.66;74.48
25945;SHT31;13742;49.306;8.636;2024-03-23T02:51:18;12.66;74.40
25945;SHT31;13742;49.306;8.636;2024-03-23T02:52:18;12.69;74.44
25945;SHT31;13742;49.306;8.636;2024-03-23T02:53:18;12.69;74.34
25945;SHT31;13742;49.306;8.636;2024-03-23T02:54:18;12.69;74.34
25945;SHT31;13742;49.306;8.636;2024-03-23T02:55:18;12.66;74.19
25945;SHT31;13742;49.306;8.636;2024-03-23T02:56:18;12.67;74.10
25945;SHT31;13742;49.306;8.636;2024-03-23T02:57:18;12.69;74.52
25945;SHT31;13742;49.306;8.636;2024-03-23T02:58:18;12.67;74.58
25945;SHT31;13742;49.306;8.636;2024-03-23T02:59:18;12.66;74.43
25945;SHT31;13742;49.306;8.636;2024-03-23T03:00:18;12.66;74.50
25945;SHT31;13742;49.306;8.636;2024-03-23T03:01:18;12.66;74.70
25945;SHT31;13742;49.306;8.636;2024-03-23T03:02:18;12.69;74.63
25945;SHT31;13742;49.306;8.636;2024-03-23T03:03:18;12.67;74.78
25945;SHT31;13742;49.306;8.636;2024-03-23T03:04:18;12.67;75.06
25945;SHT31;13742;49.306;8.636;2024-03-23T03:05:18;12.66;74.93
25945;SHT31;13742;49.306;8.636;2024-03-23T03:06:26;12.64;74.92
25945;SHT31;13742;49.306;8.636;2024-03-23T03:07:18;12.67;74.97
25945;SHT31;13742;49.306;8.636;2024-03-23T03:08:18;12.67;74.80
25945;SHT31;13742;49.306;8.636;2024-03-23T03:09:18;12.66;74.77
25945;SHT31;13742;49.306;8.636;2024-03-23T03:10:18;12.63;75.04
25945;SHT31;13742;49.306;8.636;2024-03-23T03:11:19;12.69;74.95
25945;SHT31;13742;49.306;8.636;2024-03-23T03:12:18;12.64;75.04
25945;SHT31;13742;49.306;8.636;2024-03-23T03:13:18;12.63;75.07
25945;SHT31;13742;49.306;8.636;2024-03-23T03:14:18;12.63;75.18
25945;SHT31;13742;49.306;8.636;2024-03-23T03:15:18;12.63;75.15
25945;SHT31;13742;49.306;8.636;2024-03-23T03:16:18;12.62;75.00
25945;SHT31;13742;49.306;8.636;2024-03-23T03:17:19;12.66;75.26
25945;SHT31;13742;49.306;8.636;2024-03-23T03:18:18;12.62;75.03
25945;SHT31;13742;49.306;8.636;2024-03-23T03:19:18;12.60;74.79
25945;SHT31;13742;49.306;8.636;2024-03-23T03:20:18;12.62;74.97
25945;SHT31;13742;49.306;8.636;2024-03-23T03:21:19;12.60;75.13
25945;SHT31;13742;49.306;8.636;2024-03-23T03:22:18;12.60;75.21
25945;SHT31;13742;49.306;8.636;2024-03-23T03:23:19;12.59;74.98
25945;SHT31;13742;49.306;8.636;2024-03-23T03:24:18;12.59;74.82
25945;SHT31;13742;49.306;8.636;2024-03-23T03:25:18;12.59;74.86
25945;SHT31;13742;49.306;8.636;2024-03-23T03:26:18;12.60;75.10
25945;SHT31;13742;49.306;8.636;2024-03-23T03:27:18;12.57;75.14
25945;SHT31;13742;49.306;8.636;2024-03-23T03:28:19;12.59;75.32
25945;SHT31;13742;49.306;8.636;2024-03-23T03:29:18;12.57;75.71
25945;SHT31;13742;49.306;8.636;2024-03-23T03:30:18;12.57;75.53
25945;SHT31;13742;49.306;8.636;2024-03-23T03:31:18;12.56;75.23
25945;SHT31;13742;49.306;8.636;2024-03-23T03:32:18;12.57;75.32
25945;SHT31;13742;49.306;8.636;2024-03-23T03:33:18;12.57;75.21
25945;SHT31;13742;49.306;8.636;2024-03-23T03:34:18;12.56;75.64
25945;SHT31;13742;49.306;8.636;2024-03-23T03:35:18;12.57;75.54
25945;SHT31;13742;49.306;8.636;2024-03-23T03:36:18;12.55;75.64
25945;SHT31;13742;49.306;8.636;2024-03-23T03:37:18;12.55;75.61
25945;SHT31;13742;49.306;8.636;2024-03-23T03:38:19;12.53;75.72
25945;SHT31;13742;49.306;8.636;2024-03-23T03:39:18;12.55;75.63
25945;SHT31;13742;49.306;8.636;2024-03-23T03:40:18;12.56;75.71
25945;SHT31;13742;49.306;8.636;2024-03-23T03:41:18;12.53;75.61
25945;SHT31;13742;49.306;8.636;2024-03-23T03:42:18;12.56;75.65
25945;SHT31;13742;49.306;8.636;2024-03-23T03:43:18;12.52;75.90
25945;SHT31;13742;49.306;8.636;2024-03-23T03:44:18;12.55;75.78
25945;SHT31;13742;49.306;8.636;2024-03-23T03:45:18;12.55;75.83
25945;SHT31;13742;49.306;8.636;2024-03-23T03:46:18;12.52;75.63
25945;SHT31;13742;49.306;8.636;2024-03-23T03:47:18;12.55;75.74
25945;SHT31;13742;49.306;8.636;2024-03-23T03:48:18;12.55;76.02
25945;SHT31;13742;49.306;8.636;2024-03-23T03:49:18;12.55;76.04
25945;SHT31;13742;49.306;8.636;2024-03-23T03:50:18;12.55;76.04
25945;SHT31;13742;49.306;8.636;2024-03-23T03:51:18;12.53;75.93
25945;SHT31;13742;49.306;8.636;2024-03-23T03:52:18;12.52;76.02
25945;SHT31;13742;49.306;8.636;2024-03-23T03:53:19;12.53;75.92
25945;SHT31;13742;49.306;8.636;2024-03-23T03:54:18;12.52;75.84
25945;SHT31;13742;49.306;8.636;2024-03-23T03:55:18;12.53;76.41
25945;SHT31;13742;49.306;8.636;2024-03-23T03:56:18;12.53;76.28
25945;SHT31;13742;49.306;8.636;2024-03-23T03:57:19;12.53;76.02
25945;SHT31;13742;49.306;8.636;2024-03-23T03:58:18;12.52;76.16
25945;SHT31;13742;49.306;8.636;2024-03-23T03:59:18;12.53;76.16
25945;SHT31;13742;49.306;8.636;2024-03-23T04:00:18;12.51;76.00
25945;SHT31;13742;49.306;8.636;2024-03-23T04:01:18;12.52;75.29
25945;SHT31;13742;49.306;8.636;2024-03-23T04:02:18;12.55;75.21
25945;SHT31;13742;49.306;8.636;2024-03-23T04:03:18;12.52;75.08
25945;SHT31;13742;49.306;8.636;2024-03-23T04:04:18;12.53;75.05
25945;SHT31;13742;49.306;8.636;2024-03-23T04:05:19;12.55;75.04
25945;SHT31;13742;49.306;8.636;2024-03-23T04:06:19;12.56;74.86
25945;SHT31;13742;49.306;8.636;2024-03-23T04:07:18;12.55;74.86
25945;SHT31;13742;49.306;8.636;2024-03-23T04:08:18;12.55;74.89
25945;SHT31;13742;49.306;8.636;2024-03-23T04:09:18;12.53;74.78
25945;SHT31;13742;49.306;8.636;2024-03-23T04:10:18;12.53;74.27
25945;SHT31;13742;49.306;8.636;2024-03-23T04:11:18;12.57;74.31
25945;SHT31;13742;49.306;8.636;2024-03-23T04:12:18;12.52;74.43
25945;SHT31;13742;49.306;8.636;2024-03-23T04:13:18;12.55;74.47
25945;SHT31;13742;49.306;8.636;2024-03-23T04:14:18;12.53;74.16
25945;SHT31;13742;49.306;8.636;2024-03-23T04:15:18;12.53;73.51
25945;SHT31;13742;49.306;8.636;2024-03-23T04:16:27;12.53;72.87
25945;SHT31;13742;49.306;8.636;2024-03-23T04:17:19;12.55;73.08
25945;SHT31;13742;49.306;8.636;2024-03-23T04:18:18;12.56;73.10
25945;SHT31;13742;49.306;8.636;2024-03-23T04:19:18;12.56;72.88
25945;SHT31;13742;49.306;8.636;2024-03-23T04:20:18;12.53;72.70
25945;SHT31;13742;49.306;8.636;2024-03-23T04:21:18;12.55;72.61
25945;SHT31;13742;49.306;8.636;2024-03-23T04:22:18;12.53;72.47
25945;SHT31;13742;49.306;8.636;2024-03-23T04:23:18;12.53;72.50
25945;SHT31;13742;49.306;8.636;2024-03-23T04:24:21;12.55;72.54
25945;SHT31;13742;49.306;8.636;2024-03-23T04:25:19;12.56;72.53
25945;SHT31;13742;49.306;8.636;2024-03-23T04:26:18;12.55;72.71
25945;SHT31;13742;49.306;8.636;2024-03-23T04:27:18;12.53;72.84
25945;SHT31;13742;49.306;8.636;2024-03-23T04:28:18;12.55;72.59
25945;SHT31;13742;49.306;8.636;2024-03-23T04:29:18;12.55;72.54
25945;SHT31;13742;49.306;8.636;2024-03-23T04:30:19;12.56;72.56
25945;SHT31;13742;49.306;8.636;2024-03-23T04:31:18;12.55;72.64
25945;SHT31;13742;49.306;8.636;2024-03-23T04:32:18;12.55;72.62
25945;SHT31;13742;49.306;8.636;2024-03-23T04:33:18;12.55;72.61
25945;SHT31;13742;49.306;8.636;2024-03-23T04:34:18;12.56;72.68
25945;SHT31;13742;49.306;8.636;2024-03-23T04:35:20;12.53;72.64
25945;SHT31;13742;49.306;8.636;2024-03-23T04:36:19;12.53;72.77
25945;SHT31;13742;49.306;8.636;2024-03-23T04:37:18;12.55;72.89
25945;SHT31;13742;49.306;8.636;2024-03-23T04:38:18;12.52;72.98
25945;SHT31;13742;49.306;8.636;2024-03-23T04:39:19;12.52;72.89
25945;SHT31;13742;49.306;8.636;2024-03-23T04:40:18;12.53;72.95
25945;SHT31;13742;49.306;8.636;2024-03-23T04:41:18;12.52;73.11
25945;SHT31;13742;49.306;8.636;2024-03-23T04:42:18;12.53;73.14
25945;SHT31;13742;49.306;8.636;2024-03-23T04:43:18;12.55;72.69
25945;SHT31;13742;49.306;8.636;2024-03-23T04:44:18;12.52;72.71
25945;SHT31;13742;49.306;8.636;2024-03-23T04:45:18;12.52;72.61
25945;SHT31;13742;49.306;8.636;2024-03-23T04:46:18;12.51;72.68
25945;SHT31;13742;49.306;8.636;2024-03-23T04:47:18;12.52;72.35
25945;SHT31;13742;49.306;8.636;2024-03-23T04:48:21;12.51;72.42
25945;SHT31;13742;49.306;8.636;2024-03-23T04:49:18;12.51;72.57
25945;SHT31;13742;49.306;8.636;2024-03-23T04:50:18;12.51;72.75
25945;SHT31;13742;49.306;8.636;2024-03-23T04:51:21;12.52;72.78
25945;SHT31;13742;49.306;8.636;2024-03-23T04:52:18;12.48;72.69
25945;SHT31;13742;49.306;8.636;2024-03-23T04:53:18;12.49;72.72
25945;SHT31;13742;49.306;8.636;2024-03-23T04:54:18;12.46;72.46
25945;SHT31;13742;49.306;8.636;2024-03-23T04:55:18;12.48;72.42
25945;SHT31;13742;49.306;8.636;2024-03-23T04:56:18;12.43;72.64
25945;SHT31;13742;49.306;8.636;2024-03-23T04:57:18;12.42;72.66
25945;SHT31;13742;49.306;8.636;2024-03-23T04:58:18;12.41;72.54
25945;SHT31;13742;49.306;8.636;2024-03-23T04:59:18;12.38;72.57
25945;SHT31;13742;49.306;8.636;2024-03-23T05:00:19;12.38;72.47
25945;SHT31;13742;49.306;8.636;2024-03-23T05:01:18;12.39;72.56
25945;SHT31;13742;49.306;8.636;2024-03-23T05:02:18;12.38;72.58
25945;SHT31;13742;49.306;8.636;2024-03-23T05:03:19;12.32;72.64
25945;SHT31;13742;49.306;8.636;2024-03-23T05:04:18;12.32;72.67
25945;SHT31;13742;49.306;8.636;2024-03-23T05:05:18;12.32;72.67
25945;SHT31;13742;49.306;8.636;2024-03-23T05:06:18;12.31;72.67
25945;SHT31;13742;49.306;8.636;2024-03-23T05:07:18;12.32;72.55
25945;SHT31;13742;49.306;8.636;2024-03-23T05:08:18;12.27;72.99
25945;SHT31;13742;49.306;8.636;2024-03-23T05:09:18;12.24;72.99
25945;SHT31;13742;49.306;8.636;2024-03-23T05:10:18;12.25;72.91
25945;SHT31;13742;49.306;8.636;2024-03-23T05:11:18;12.21;73.12
25945;SHT31;13742;49.306;8.636;2024-03-23T05:12:18;12.21;73.25
25945;SHT31;13742;49.306;8.636;2024-03-23T05:13:18;12.17;73.51
25945;SHT31;13742;49.306;8.636;2024-03-23T05:14:18;12.15;73.39
25945;SHT31;13742;49.306;8.636;2024-03-23T05:15:18;12.20;73.49
25945;SHT31;13742;49.306;8.636;2024-03-23T05:16:18;12.17;73.68
25945;SHT31;13742;49.306;8.636;2024-03-23T05:17:18;12.17;73.95
25945;SHT31;13742;49.306;8.636;2024-03-23T05:18:18;12.14;73.75
25945;SHT31;13742;49.306;8.636;2024-03-23T05:19:18;12.14;73.63
25945;SHT31;13742;49.306;8.636;2024-03-23T05:20:19;12.11;73.70
25945;SHT31;13742;49.306;8.636;2024-03-23T05:21:18;12.08;73.75
25945;SHT31;13742;49.306;8.636;2024-03-23T05:22:18;12.06;74.21
25945;SHT31;13742;49.306;8.636;2024-03-23T05:23:18;12.04;73.68
25945;SHT31;13742;49.306;8.636;2024-03-23T05:24:18;12.04;73.60
25945;SHT31;13742;49.306;8.636;2024-03-23T05:25:18;12.05;73.62
25945;SHT31;13742;49.306;8.636;2024-03-23T05:26:18;12.04;73.87
25945;SHT31;13742;49.306;8.636;2024-03-23T05:27:18;12.04;73.86
25945;SHT31;13742;49.306;8.636;2024-03-23T05:28:18;12.02;73.95
25945;SHT31;13742;49.306;8.636;2024-03-23T05:29:18;11.95;73.76
25945;SHT31;13742;49.306;8.636;2024-03-23T05:30:18;11.95;73.48
25945;SHT31;13742;49.306;8.636;2024-03-23T05:31:26;11.97;73.28
25945;SHT31;13742;49.306;8.636;2024-03-23T05:32:18;11.94;73.17
25945;SHT31;13742;49.306;8.636;2024-03-23T05:33:21;11.97;73.08
25945;SHT31;13742;49.306;8.636;2024-03-23T05:34:18;11.97;73.32
25945;SHT31;13742;49.306;8.636;2024-03-23T05:35:18;11.94;73.57
25945;SHT31;13742;49.306;8.636;2024-03-23T05:36:18;11.92;72.86
25945;SHT31;13742;49.306;8.636;2024-03-23T05:37:18;11.91;73.05
25945;SHT31;13742;49.306;8.636;2024-03-23T05:38:18;11.91;72.81
25945;SHT31;13742;49.306;8.636;2024-03-23T05:39:18;11.92;72.83
25945;SHT31;13742;49.306;8.636;2024-03-23T05:40:18;11.85;73.25
25945;SHT31;13742;49.306;8.636;2024-03-23T05:41:18;11.88;72.83
25945;SHT31;13742;49.306;8.636;2024-03-23T05:42:18;11.87;72.56
25945;SHT31;13742;49.306;8.636;2024-03-23T05:43:18;11.85;72.57
25945;SHT31;13742;49.306;8.636;2024-03-23T05:44:18;11.84;72.80
25945;SHT31;13742;49.306;8.636;2024-03-23T05:45:19;11.83;72.63
25945;SHT31;13742;49.306;8.636;2024-03-23T05:46:18;11.83;72.40
25945;SHT31;13742;49.306;8.636;2024-03-23T05:47:18;11.81;72.40
25945;SHT31;13742;49.306;8.636;2024-03-23T05:48:18;11.83;72.51
25945;SHT31;13742;49.306;8.636;2024-03-23T05:49:18;11.78;72.58
25945;SHT31;13742;49.306;8.636;2024-03-23T05:50:18;11.69;72.85
25945;SHT31;13742;49.306;8.636;2024-03-23T05:51:18;11.73;72.61
25945;SHT31;13742;49.306;8.636;2024-03-23T05:52:18;11.70;72.83
25945;SHT31;13742;49.306;8.636;2024-03-23T05:53:19;11.67;72.85
25945;SHT31;13742;49.306;8.636;2024-03-23T05:54:18;11.64;73.15
25945;SHT31;13742;49.306;8.636;2024-03-23T05:55:18;11.61;73.43
25945;SHT31;13742;49.306;8.636;2024-03-23T05:56:19;11.49;72.92
25945;SHT31;13742;49.306;8.636;2024-03-23T05:57:19;11.25;72.67
25945;SHT31;13742;49.306;8.636;2024-03-23T05:58:21;11.21;72.50
25945;SHT31;13742;49.306;8.636;2024-03-23T05:59:18;10.96;72.29
25945;SHT31;13742;49.306;8.636;2024-03-23T06:00:18;10.61;71.50
25945;SHT31;13742;49.306;8.636;2024-03-23T06:01:18;10.51;71.77
25945;SHT31;13742;49.306;8.636;2024-03-23T06:02:18;10.37;72.13
25945;SHT31;13742;49.306;8.636;2024-03-23T06:03:18;10.30;72.68
25945;SHT31;13742;49.306;8.636;2024-03-23T06:04:18;10.23;73.10
25945;SHT31;13742;49.306;8.636;2024-03-23T06:05:18;10.17;73.37
25945;SHT31;13742;49.306;8.636;2024-03-23T06:06:18;10.06;73.59
25945;SHT31;13742;49.306;8.636;2024-03-23T06:07:18;10.09;73.57
25945;SHT31;13742;49.306;8.636;2024-03-23T06:08:18;10.13;73.53
25945;SHT31;13742;49.306;8.636;2024-03-23T06:09:18;10.02;73.64
25945;SHT31;13742;49.306;8.636;2024-03-23T06:10:18;10.02;73.62
25945;SHT31;13742;49.306;8.636;2024-03-23T06:11:18;9.96;73.85
25945;SHT31;13742;49.306;8.636;2024-03-23T06:12:18;9.95;73.69
25945;SHT31;13742;49.306;8.636;2024-03-23T06:13:18;9.99;73.86
25945;SHT31;13742;49.306;8.636;2024-03-23T06:14:18;9.95;73.75
25945;SHT31;13742;49.306;8.636;2024-03-23T06:15:19;9.92;73.90
25945;SHT31;13742;49.306;8.636;2024-03-23T06:16:23;9.89;74.12
25945;SHT31;13742;49.306;8.636;2024-03-23T06:17:18;9.89;74.05
25945;SHT31;13742;49.306;8.636;2024-03-23T06:18:18;9.81;74.11
25945;SHT31;13742;49.306;8.636;2024-03-23T06:19:18;9.82;74.08
25945;SHT31;13742;49.306;8.636;2024-03-23T06:20:18;9.75;74.26
25945;SHT31;13742;49.306;8.636;2024-03-23T06:21:18;9.78;74.43
25945;SHT31;13742;49.306;8.636;2024-03-23T06:22:18;9.71;74.45
25945;SHT31;13742;49.306;8.636;2024-03-23T06:23:20;9.72;74.62
25945;SHT31;13742;49.306;8.636;2024-03-23T06:24:18;9.65;74.61
25945;SHT31;13742;49.306;8.636;2024-03-23T06:25:18;9.64;74.71
25945;SHT31;13742;49.306;8.636;2024-03-23T06:26:19;9.62;74.62
25945;SHT31;13742;49.306;8.636;2024-03-23T06:27:19;9.65;74.76
25945;SHT31;13742;49.306;8.636;2024-03-23T06:28:18;9.61;74.72
25945;SHT31;13742;49.306;8.636;2024-03-23T06:29:18;9.59;74.80
25945;SHT31;13742;49.306;8.636;2024-03-23T06:30:18;9.59;74.76
25945;SHT31;13742;49.306;8.636;2024-03-23T06:31:18;9.58;74.92
25945;SHT31;13742;49.306;8.636;2024-03-23T06:32:18;9.61;74.88
25945;SHT31;13742;49.306;8.636;2024-03-23T06:33:18;9.65;74.98
25945;SHT31;13742;49.306;8.636;2024-03-23T06:34:18;9.59;74.93
25945;SHT31;13742;49.306;8.636;2024-03-23T06:35:18;9.57;75.31
25945;SHT31;13742;49.306;8.636;2024-03-23T06:36:19;9.61;74.92
25945;SHT31;13742;49.306;8.636;2024-03-23T06:37:18;9.55;74.96
25945;SHT31;13742;49.306;8.636;2024-03-23T06:38:18;9.58;75.17
25945;SHT31;13742;49.306;8.636;2024-03-23T06:39:18;9.58;75.02
25945;SHT31;13742;49.306;8.636;2024-03-23T06:40:18;9.58;75.17
25945;SHT31;13742;49.306;8.636;2024-03-23T06:41:19;9.59;75.19
25945;SHT31;13742;49.306;8.636;2024-03-23T06:42:18;9.55;75.02
25945;SHT31;13742;49.306;8.636;2024-03-23T06:43:18;9.55;75.20
25945;SHT31;13742;49.306;8.636;2024-03-23T06:44:18;9.55;75.14
25945;SHT31;13742;49.306;8.636;2024-03-23T06:45:23;9.64;75.19
25945;SHT31;13742;49.306;8.636;2024-03-23T06:46:18;9.62;75.38
25945;SHT31;13742;49.306;8.636;2024-03-23T06:47:18;9.61;75.28
25945;SHT31;13742;49.306;8.636;2024-03-23T06:48:19;9.62;75.03
25945;SHT31;13742;49.306;8.636;2024-03-23T06:49:18;9.68;75.27
25945;SHT31;13742;49.306;8.636;2024-03-23T06:50:18;9.68;74.94
25945;SHT31;13742;49.306;8.636;2024-03-23T06:51:18;9.66;74.98
25945;SHT31;13742;49.306;8.636;2024-03-23T06:52:18;9.62;75.01
25945;SHT31;13742;49.306;8.636;2024-03-23T06:53:18;9.68;75.02
25945;SHT31;13742;49.306;8.636;2024-03-23T06:54:19;9.66;74.97
25945;SHT31;13742;49.306;8.636;2024-03-23T06:55:18;9.64;75.17
25945;SHT31;13742;49.306;8.636;2024-03-23T06:56:18;9.61;74.56
25945;SHT31;13742;49.306;8.636;2024-03-23T06:57:18;9.64;74.88
25945;SHT31;13742;49.306;8.636;2024-03-23T06:58:19;9.64;74.97
25945;SHT31;13742;49.306;8.636;2024-03-23T06:59:18;9.65;74.84
25945;SHT31;13742;49.306;8.636;2024-03-23T07:00:18;9.69;75.01
25945;SHT31;13742;49.306;8.636;2024-03-23T07:01:18;9.68;74.72
25945;SHT31;13742;49.306;8.636;2024-03-23T07:02:18;9.69;74.69
25945;SHT31;13742;49.306;8.636;2024-03-23T07:03:18;9.68;74.89
25945;SHT31;13742;49.306;8.636;2024-03-23T07:04:18;9.66;74.94
25945;SHT31;13742;49.306;8.636;2024-03-23T07:05:18;9.66;75.03
25945;SHT31;13742;49.306;8.636;2024-03-23T07:06:18;9.66;75.05
25945;SHT31;13742;49.306;8.636;2024-03-23T07:07:18;9.62;74.91
25945;SHT31;13742;49.306;8.636;2024-03-23T07:08:22;9.55;75.09
25945;SHT31;13742;49.306;8.636;2024-03-23T07:09:18;9.50;75.35
25945;SHT31;13742;49.306;8.636;2024-03-23T07:10:18;9.51;75.32
25945;SHT31;13742;49.306;8.636;2024-03-23T07:11:19;9.47;75.44
25945;SHT31;13742;49.306;8.636;2024-03-23T07:12:18;9.44;75.16
25945;SHT31;13742;49.306;8.636;2024-03-23T07:13:18;9.40;74.57